Pagrindinis puslapis
METAR-TAF:

METAR-TAF

Oro uostai :

Adijamanas, Turkija

platuma: 37-43-54N, ilguma: 38-28-08E, Aukštis: 675 m

Dabartinis oras

Ataskaita buvo paskelbta 1 valandą ir 17 minutes, ne 12:50 UTC
Vėjas 3 kt iš Pietų, svyruoja nuo Rytų/Pietryčių ir Vakarų/Pietvakarių
Temperatūra 35°C
Drėgmė 18%
Slėgis 1015 hPa
Matomumas 10 km arba daugiau
nėra debesų žemiau 1500 m ir nėra kamuolinių lietaus debesų

METAR: LTCP 281250Z 17003KT 110V240 CAVOK 35/07 Q1015

Laikas: 17:07 (14:07 UTC)

Prognozė

Ataskaita buvo paskelbta 3 valandos ir 27 minutes, ne 10:40 UTC
Prognozė galioja nuo 28 metu 12 UTC su 28 metu 21 UTC
Vėjas 8 kt iš Šiaurės
Matomumas 10 km arba daugiau
nėra debesų žemiau 1500 m ir nėra kamuolinių lietaus debesų
Tapsmas
nuo 28 metu 18 UTC su 28 metu 20 UTC
Vėjas 18 kt iš Šiaurės su gūsio iki 28 kt

TAF: LTCP 281040Z 2812/2821 35008KT CAVOK BECMG 2818/2820 35018G28KT

Orai ataskaitas ir orų prognozės (METAR, TAF).

turimą stotys yra geltonos ir raudonos taškus žemėlapyje.

Perkelti pele per norėdami pamatyti stoties vardą.

Tada spustelėkite, norėdami matyti oro stebėjimo ir prognozės.

Norėdami pakeisti žemėlapį: spustelėkite ant žalios mygtukų su juodo kryžiaus žemyn,; žalią mygtuką su brūkšneliu, jei norite nutolinti; arba žalių rodyklių gretimoms žemėlapius.


METAR-TAF: